sensor_id;sensor_type;location;lat;lon;timestamp;pressure;altitude;pressure_sealevel;temperature;humidity
13869;BME280;7004;48.206;16.402;2023-03-04T00:02:04;100057.78;;;4.62;64.78
13869;BME280;7004;48.206;16.402;2023-03-04T00:04:30;100055.88;;;4.67;64.42
13869;BME280;7004;48.206;16.402;2023-03-04T00:06:57;100054.31;;;4.61;64.54
13869;BME280;7004;48.206;16.402;2023-03-04T00:09:23;100059.75;;;4.55;64.57
13869;BME280;7004;48.206;16.402;2023-03-04T00:11:50;100057.78;;;4.62;64.60
13869;BME280;7004;48.206;16.402;2023-03-04T00:14:16;100055.28;;;4.58;64.56
13869;BME280;7004;48.206;16.402;2023-03-04T00:16:42;100051.91;;;4.55;65.58
13869;BME280;7004;48.206;16.402;2023-03-04T00:19:10;100044.31;;;4.47;65.27
13869;BME280;7004;48.206;16.402;2023-03-04T00:21:36;100050.19;;;4.27;66.82
13869;BME280;7004;48.206;16.402;2023-03-04T00:24:02;100051.81;;;4.31;66.19
13869;BME280;7004;48.206;16.402;2023-03-04T00:26:29;100053.88;;;4.22;66.56
13869;BME280;7004;48.206;16.402;2023-03-04T00:28:56;100051.47;;;4.15;66.82
13869;BME280;7004;48.206;16.402;2023-03-04T00:31:22;100055.75;;;4.18;66.29
13869;BME280;7004;48.206;16.402;2023-03-04T00:33:48;100056.16;;;4.04;67.37
13869;BME280;7004;48.206;16.402;2023-03-04T00:36:15;100044.09;;;4.00;67.60
13869;BME280;7004;48.206;16.402;2023-03-04T00:38:42;100043.38;;;3.95;67.35
13869;BME280;7004;48.206;16.402;2023-03-04T00:41:08;100040.94;;;3.89;67.80
13869;BME280;7004;48.206;16.402;2023-03-04T00:43:35;100035.16;;;3.79;68.26
13869;BME280;7004;48.206;16.402;2023-03-04T00:46:01;100032.94;;;3.93;67.83
13869;BME280;7004;48.206;16.402;2023-03-04T00:48:27;100028.50;;;3.97;68.06
13869;BME280;7004;48.206;16.402;2023-03-04T00:50:53;100027.91;;;3.87;68.04
13869;BME280;7004;48.206;16.402;2023-03-04T00:53:20;100023.44;;;3.91;67.69
13869;BME280;7004;48.206;16.402;2023-03-04T00:55:49;100018.06;;;3.96;68.15
13869;BME280;7004;48.206;16.402;2023-03-04T00:58:16;100023.44;;;3.91;68.12
13869;BME280;7004;48.206;16.402;2023-03-04T01:00:43;100015.47;;;3.96;68.12
13869;BME280;7004;48.206;16.402;2023-03-04T01:03:09;100019.41;;;3.81;68.52
13869;BME280;7004;48.206;16.402;2023-03-04T01:05:35;100016.69;;;3.84;68.39
13869;BME280;7004;48.206;16.402;2023-03-04T01:08:03;100006.19;;;3.85;68.32
13869;BME280;7004;48.206;16.402;2023-03-04T01:10:30;100010.13;;;3.70;69.17
13869;BME280;7004;48.206;16.402;2023-03-04T01:12:57;100003.22;;;3.68;69.28
13869;BME280;7004;48.206;16.402;2023-03-04T01:15:25;100001.91;;;3.55;69.92
13869;BME280;7004;48.206;16.402;2023-03-04T01:17:51;99999.94;;;3.33;69.74
13869;BME280;7004;48.206;16.402;2023-03-04T01:20:20;99998.22;;;3.32;70.59
13869;BME280;7004;48.206;16.402;2023-03-04T01:22:46;100003.28;;;3.37;70.90
13869;BME280;7004;48.206;16.402;2023-03-04T01:25:13;99995.56;;;3.04;70.87
13869;BME280;7004;48.206;16.402;2023-03-04T01:27:39;99996.94;;;3.16;71.04
13869;BME280;7004;48.206;16.402;2023-03-04T01:30:06;99989.00;;;3.19;70.91
13869;BME280;7004;48.206;16.402;2023-03-04T01:32:33;99989.69;;;3.25;71.60
13869;BME280;7004;48.206;16.402;2023-03-04T01:34:59;99979.94;;;3.32;70.51
13869;BME280;7004;48.206;16.402;2023-03-04T01:37:26;99983.50;;;3.30;71.60
13869;BME280;7004;48.206;16.402;2023-03-04T01:39:52;99982.56;;;3.01;72.50
13869;BME280;7004;48.206;16.402;2023-03-04T01:42:23;99979.25;;;3.25;71.67
13869;BME280;7004;48.206;16.402;2023-03-04T01:44:50;99977.59;;;3.23;72.28
13869;BME280;7004;48.206;16.402;2023-03-04T01:47:19;99970.56;;;3.25;72.24
13869;BME280;7004;48.206;16.402;2023-03-04T01:49:53;99978.25;;;3.00;73.21
13869;BME280;7004;48.206;16.402;2023-03-04T01:52:22;99982.44;;;3.05;72.56
13869;BME280;7004;48.206;16.402;2023-03-04T01:54:48;99970.59;;;2.94;72.98
13869;BME280;7004;48.206;16.402;2023-03-04T01:57:18;99970.16;;;3.09;72.59
13869;BME280;7004;48.206;16.402;2023-03-04T01:59:46;99964.66;;;2.89;74.12
13869;BME280;7004;48.206;16.402;2023-03-04T02:02:13;99960.91;;;2.66;74.17
13869;BME280;7004;48.206;16.402;2023-03-04T02:04:41;99956.41;;;2.71;74.07
13869;BME280;7004;48.206;16.402;2023-03-04T02:07:07;99954.50;;;2.78;74.67
13869;BME280;7004;48.206;16.402;2023-03-04T02:09:35;99953.69;;;2.76;74.41
13869;BME280;7004;48.206;16.402;2023-03-04T02:12:02;99944.50;;;2.61;75.14
13869;BME280;7004;48.206;16.402;2023-03-04T02:14:29;99951.66;;;2.20;76.01
13869;BME280;7004;48.206;16.402;2023-03-04T02:16:55;99944.00;;;2.15;76.92
13869;BME280;7004;48.206;16.402;2023-03-04T02:22:05;99940.72;;;2.40;75.64
13869;BME280;7004;48.206;16.402;2023-03-04T02:25:08;99943.09;;;2.16;76.49
13869;BME280;7004;48.206;16.402;2023-03-04T02:27:28;99934.97;;;2.27;76.82
13869;BME280;7004;48.206;16.402;2023-03-04T02:29:54;99939.53;;;2.19;77.13
13869;BME280;7004;48.206;16.402;2023-03-04T02:32:20;99940.44;;;2.18;76.64
13869;BME280;7004;48.206;16.402;2023-03-04T02:34:49;99939.03;;;2.05;77.69
13869;BME280;7004;48.206;16.402;2023-03-04T02:37:17;99933.84;;;2.03;76.96
13869;BME280;7004;48.206;16.402;2023-03-04T02:39:46;99932.44;;;1.90;77.90
13869;BME280;7004;48.206;16.402;2023-03-04T02:42:14;99926.22;;;1.95;77.70
13869;BME280;7004;48.206;16.402;2023-03-04T02:44:43;99916.66;;;1.96;77.79
13869;BME280;7004;48.206;16.402;2023-03-04T02:47:15;99917.31;;;1.68;78.67
13869;BME280;7004;48.206;16.402;2023-03-04T02:49:46;99912.75;;;1.78;78.42
13869;BME280;7004;48.206;16.402;2023-03-04T02:52:18;99909.38;;;1.74;79.49
13869;BME280;7004;48.206;16.402;2023-03-04T02:54:45;99908.16;;;1.52;79.25
13869;BME280;7004;48.206;16.402;2023-03-04T02:57:14;99908.75;;;1.26;81.44
13869;BME280;7004;48.206;16.402;2023-03-04T02:59:41;99896.81;;;1.55;80.31
13869;BME280;7004;48.206;16.402;2023-03-04T03:02:09;99893.63;;;1.79;79.27
13869;BME280;7004;48.206;16.402;2023-03-04T03:04:38;99888.06;;;1.91;78.63
13869;BME280;7004;48.206;16.402;2023-03-04T03:07:05;99883.69;;;1.93;77.89
13869;BME280;7004;48.206;16.402;2023-03-04T03:09:31;99892.00;;;1.73;78.58
13869;BME280;7004;48.206;16.402;2023-03-04T03:11:58;99891.69;;;1.86;78.17
13869;BME280;7004;48.206;16.402;2023-03-04T03:14:25;99893.72;;;1.74;77.90
13869;BME280;7004;48.206;16.402;2023-03-04T03:16:53;99878.78;;;1.81;77.86
13869;BME280;7004;48.206;16.402;2023-03-04T03:19:19;99880.91;;;1.65;78.61
13869;BME280;7004;48.206;16.402;2023-03-04T03:21:45;99874.84;;;1.65;78.99
13869;BME280;7004;48.206;16.402;2023-03-04T03:24:11;99875.00;;;1.59;78.60
13869;BME280;7004;48.206;16.402;2023-03-04T03:26:38;99870.50;;;1.65;78.01
13869;BME280;7004;48.206;16.402;2023-03-04T03:29:06;99872.31;;;1.62;78.75
13869;BME280;7004;48.206;16.402;2023-03-04T03:31:32;99867.47;;;1.46;79.01
13869;BME280;7004;48.206;16.402;2023-03-04T03:33:58;99866.88;;;1.71;78.00
13869;BME280;7004;48.206;16.402;2023-03-04T03:36:24;99856.13;;;1.49;78.84
13869;BME280;7004;48.206;16.402;2023-03-04T03:38:51;99857.09;;;1.45;79.07
13869;BME280;7004;48.206;16.402;2023-03-04T03:41:17;99847.16;;;1.61;78.60
13869;BME280;7004;48.206;16.402;2023-03-04T03:43:43;99850.09;;;1.47;79.41
13869;BME280;7004;48.206;16.402;2023-03-04T03:46:10;99845.13;;;1.38;79.72
13869;BME280;7004;48.206;16.402;2023-03-04T03:48:37;99848.25;;;1.15;80.28
13869;BME280;7004;48.206;16.402;2023-03-04T03:51:04;99836.13;;;1.14;80.59
13869;BME280;7004;48.206;16.402;2023-03-04T03:53:30;99840.88;;;0.96;81.63
13869;BME280;7004;48.206;16.402;2023-03-04T03:55:57;99840.97;;;0.92;82.04
13869;BME280;7004;48.206;16.402;2023-03-04T03:58:24;99836.47;;;0.98;82.41
13869;BME280;7004;48.206;16.402;2023-03-04T04:00:52;99832.72;;;1.12;81.02
13869;BME280;7004;48.206;16.402;2023-03-04T04:03:18;99842.44;;;1.03;81.67
13869;BME280;7004;48.206;16.402;2023-03-04T04:05:45;99833.16;;;0.92;81.35
13869;BME280;7004;48.206;16.402;2023-03-04T04:08:16;99830.13;;;1.10;80.65
13869;BME280;7004;48.206;16.402;2023-03-04T04:10:43;99827.38;;;0.79;82.15
13869;BME280;7004;48.206;16.402;2023-03-04T04:13:10;99823.75;;;0.86;81.85
13869;BME280;7004;48.206;16.402;2023-03-04T04:15:37;99822.22;;;0.76;82.88
13869;BME280;7004;48.206;16.402;2023-03-04T04:18:05;99823.22;;;0.70;82.81
13869;BME280;7004;48.206;16.402;2023-03-04T04:20:32;99823.19;;;0.72;82.54
13869;BME280;7004;48.206;16.402;2023-03-04T04:23:00;99816.97;;;0.77;82.83
13869;BME280;7004;48.206;16.402;2023-03-04T04:25:27;99813.34;;;0.86;82.83
13869;BME280;7004;48.206;16.402;2023-03-04T04:27:53;99820.16;;;0.90;82.58
13869;BME280;7004;48.206;16.402;2023-03-04T04:30:20;99815.69;;;0.97;82.08
13869;BME280;7004;48.206;16.402;2023-03-04T04:32:46;99810.56;;;0.94;81.92
13869;BME280;7004;48.206;16.402;2023-03-04T04:35:12;99815.59;;;1.01;82.34
13869;BME280;7004;48.206;16.402;2023-03-04T04:37:39;99806.28;;;0.91;82.85
13869;BME280;7004;48.206;16.402;2023-03-04T04:40:06;99805.88;;;1.08;82.31
13869;BME280;7004;48.206;16.402;2023-03-04T04:42:32;99806.88;;;1.02;82.47
13869;BME280;7004;48.206;16.402;2023-03-04T04:44:59;99807.22;;;0.89;83.86
13869;BME280;7004;48.206;16.402;2023-03-04T04:47:25;99796.84;;;1.23;82.64
13869;BME280;7004;48.206;16.402;2023-03-04T04:49:51;99804.47;;;0.95;82.13
13869;BME280;7004;48.206;16.402;2023-03-04T04:52:18;99805.31;;;0.95;82.14
13869;BME280;7004;48.206;16.402;2023-03-04T04:54:44;99799.16;;;0.99;83.12
13869;BME280;7004;48.206;16.402;2023-03-04T04:57:10;99800.38;;;0.83;85.13
13869;BME280;7004;48.206;16.402;2023-03-04T04:59:37;99796.63;;;0.57;85.41
13869;BME280;7004;48.206;16.402;2023-03-04T05:02:03;99794.50;;;1.12;84.32
13869;BME280;7004;48.206;16.402;2023-03-04T05:04:30;99786.81;;;1.07;87.35
13869;BME280;7004;48.206;16.402;2023-03-04T05:06:57;99786.66;;;1.14;86.39
13869;BME280;7004;48.206;16.402;2023-03-04T05:09:23;99773.69;;;1.48;90.38
13869;BME280;7004;48.206;16.402;2023-03-04T05:11:51;99773.53;;;1.52;87.93
13869;BME280;7004;48.206;16.402;2023-03-04T05:14:18;99768.78;;;1.34;86.54
13869;BME280;7004;48.206;16.402;2023-03-04T05:16:45;99770.56;;;1.99;89.86
13869;BME280;7004;48.206;16.402;2023-03-04T05:19:13;99766.03;;;2.37;90.85
13869;BME280;7004;48.206;16.402;2023-03-04T05:21:41;99765.06;;;2.39;91.32
13869;BME280;7004;48.206;16.402;2023-03-04T05:24:07;99754.72;;;3.21;93.01
13869;BME280;7004;48.206;16.402;2023-03-04T05:26:34;99761.69;;;2.94;90.52
13869;BME280;7004;48.206;16.402;2023-03-04T05:29:02;99764.66;;;3.36;92.06
13869;BME280;7004;48.206;16.402;2023-03-04T05:31:28;99761.13;;;3.64;91.98
13869;BME280;7004;48.206;16.402;2023-03-04T05:33:54;99757.38;;;3.96;91.19
13869;BME280;7004;48.206;16.402;2023-03-04T05:36:21;99760.56;;;4.51;89.40
13869;BME280;7004;48.206;16.402;2023-03-04T05:38:47;99757.13;;;4.73;87.99
13869;BME280;7004;48.206;16.402;2023-03-04T05:41:15;99758.84;;;4.74;87.31
13869;BME280;7004;48.206;16.402;2023-03-04T05:43:43;99759.63;;;4.76;87.19
13869;BME280;7004;48.206;16.402;2023-03-04T05:46:14;99752.41;;;4.82;87.31
13869;BME280;7004;48.206;16.402;2023-03-04T05:48:41;99765.28;;;4.87;86.39
13869;BME280;7004;48.206;16.402;2023-03-04T05:51:07;99763.22;;;4.95;85.70
13869;BME280;7004;48.206;16.402;2023-03-04T05:53:35;99770.53;;;4.87;86.43
13869;BME280;7004;48.206;16.402;2023-03-04T05:56:15;99768.06;;;5.06;84.96
13869;BME280;7004;48.206;16.402;2023-03-04T05:58:42;99761.59;;;5.15;84.85
13869;BME280;7004;48.206;16.402;2023-03-04T06:01:10;99759.97;;;5.33;83.51
13869;BME280;7004;48.206;16.402;2023-03-04T06:03:37;99765.13;;;5.34;83.29
13869;BME280;7004;48.206;16.402;2023-03-04T06:06:04;99770.94;;;5.42;82.49
13869;BME280;7004;48.206;16.402;2023-03-04T06:08:30;99766.59;;;5.41;82.56
13869;BME280;7004;48.206;16.402;2023-03-04T06:10:57;99778.69;;;5.45;82.36
13869;BME280;7004;48.206;16.402;2023-03-04T06:13:24;99779.59;;;5.65;81.18
13869;BME280;7004;48.206;16.402;2023-03-04T06:15:55;99773.31;;;5.69;80.75
13869;BME280;7004;48.206;16.402;2023-03-04T06:18:23;99779.28;;;5.73;81.07
13869;BME280;7004;48.206;16.402;2023-03-04T06:20:50;99780.66;;;5.81;80.25
13869;BME280;7004;48.206;16.402;2023-03-04T06:23:16;99793.69;;;5.83;79.96
13869;BME280;7004;48.206;16.402;2023-03-04T06:25:43;99791.03;;;5.84;80.16
13869;BME280;7004;48.206;16.402;2023-03-04T06:28:09;99786.69;;;5.83;78.99
13869;BME280;7004;48.206;16.402;2023-03-04T06:30:35;99786.34;;;5.91;78.75
13869;BME280;7004;48.206;16.402;2023-03-04T06:33:02;99788.06;;;5.72;79.92
13869;BME280;7004;48.206;16.402;2023-03-04T06:35:29;99790.84;;;5.89;79.18
13869;BME280;7004;48.206;16.402;2023-03-04T06:37:55;99799.41;;;5.94;78.55
13869;BME280;7004;48.206;16.402;2023-03-04T06:40:21;99791.47;;;6.15;78.03
13869;BME280;7004;48.206;16.402;2023-03-04T06:42:48;99792.38;;;5.93;78.75
13869;BME280;7004;48.206;16.402;2023-03-04T06:45:14;99801.03;;;5.97;78.36
13869;BME280;7004;48.206;16.402;2023-03-04T06:47:41;99793.53;;;6.08;77.58
13869;BME280;7004;48.206;16.402;2023-03-04T06:50:09;99793.00;;;6.20;77.22
13869;BME280;7004;48.206;16.402;2023-03-04T06:52:38;99795.81;;;6.16;76.52
13869;BME280;7004;48.206;16.402;2023-03-04T06:55:06;99796.97;;;6.29;75.84
13869;BME280;7004;48.206;16.402;2023-03-04T06:57:33;99790.88;;;6.28;75.66
13869;BME280;7004;48.206;16.402;2023-03-04T06:59:59;99775.97;;;6.29;75.95
13869;BME280;7004;48.206;16.402;2023-03-04T07:02:25;99781.97;;;6.51;74.41
13869;BME280;7004;48.206;16.402;2023-03-04T07:04:51;99795.78;;;6.74;73.85
13869;BME280;7004;48.206;16.402;2023-03-04T07:07:18;99787.38;;;6.67;73.54
13869;BME280;7004;48.206;16.402;2023-03-04T07:09:44;99785.66;;;6.85;72.64
13869;BME280;7004;48.206;16.402;2023-03-04T07:12:10;99780.31;;;7.06;71.06
13869;BME280;7004;48.206;16.402;2023-03-04T07:14:37;99782.59;;;7.48;68.72
13869;BME280;7004;48.206;16.402;2023-03-04T07:17:03;99786.47;;;7.58;69.52
13869;BME280;7004;48.206;16.402;2023-03-04T07:19:29;99788.09;;;7.96;66.59
13869;BME280;7004;48.206;16.402;2023-03-04T07:21:56;99772.13;;;8.32;64.33
13869;BME280;7004;48.206;16.402;2023-03-04T07:24:22;99781.28;;;7.92;67.03
13869;BME280;7004;48.206;16.402;2023-03-04T07:26:49;99777.81;;;8.42;65.66
13869;BME280;7004;48.206;16.402;2023-03-04T07:29:15;99770.59;;;8.61;63.60
13869;BME280;7004;48.206;16.402;2023-03-04T07:31:42;99778.53;;;8.28;65.12
13869;BME280;7004;48.206;16.402;2023-03-04T07:34:13;99772.13;;;8.65;63.36
13869;BME280;7004;48.206;16.402;2023-03-04T07:36:40;99765.00;;;8.67;62.71
13869;BME280;7004;48.206;16.402;2023-03-04T07:39:06;99764.19;;;8.16;63.09
13869;BME280;7004;48.206;16.402;2023-03-04T07:41:33;99768.75;;;9.11;60.59
13869;BME280;7004;48.206;16.402;2023-03-04T07:44:04;99784.63;;;8.62;61.52
13869;BME280;7004;48.206;16.402;2023-03-04T07:46:30;99762.13;;;9.50;59.63
13869;BME280;7004;48.206;16.402;2023-03-04T07:48:56;99766.69;;;9.16;58.56
13869;BME280;7004;48.206;16.402;2023-03-04T07:51:25;99765.09;;;8.98;59.06
13869;BME280;7004;48.206;16.402;2023-03-04T07:53:57;99759.03;;;9.72;57.04
13869;BME280;7004;48.206;16.402;2023-03-04T07:56:29;99765.47;;;9.37;57.49
13869;BME280;7004;48.206;16.402;2023-03-04T07:58:55;99764.50;;;9.69;56.27
13869;BME280;7004;48.206;16.402;2023-03-04T08:01:35;99772.22;;;10.02;56.09
13869;BME280;7004;48.206;16.402;2023-03-04T08:04:04;99772.22;;;10.16;55.45
13869;BME280;7004;48.206;16.402;2023-03-04T08:06:31;99763.53;;;11.13;53.06
13869;BME280;7004;48.206;16.402;2023-03-04T08:09:01;99768.66;;;10.17;54.61
13869;BME280;7004;48.206;16.402;2023-03-04T08:11:29;99772.00;;;11.45;51.40
13869;BME280;7004;48.206;16.402;2023-03-04T08:13:56;99771.69;;;11.50;51.54
13869;BME280;7004;48.206;16.402;2023-03-04T08:16:24;99774.13;;;11.13;51.82
13869;BME280;7004;48.206;16.402;2023-03-04T08:18:55;99770.47;;;10.87;51.29
13869;BME280;7004;48.206;16.402;2023-03-04T08:21:24;99775.59;;;11.17;51.97
13869;BME280;7004;48.206;16.402;2023-03-04T08:23:51;99778.47;;;10.44;52.72
13869;BME280;7004;48.206;16.402;2023-03-04T08:26:34;99793.03;;;10.51;51.60
13869;BME280;7004;48.206;16.402;2023-03-04T08:29:02;99775.47;;;11.46;50.31
13869;BME280;7004;48.206;16.402;2023-03-04T08:31:31;99778.66;;;11.11;50.25
13869;BME280;7004;48.206;16.402;2023-03-04T08:33:57;99778.16;;;12.11;47.91
13869;BME280;7004;48.206;16.402;2023-03-04T08:36:24;99791.22;;;10.37;51.66
13869;BME280;7004;48.206;16.402;2023-03-04T08:38:50;99791.22;;;11.34;50.38
13869;BME280;7004;48.206;16.402;2023-03-04T08:41:16;99786.75;;;11.62;48.70
13869;BME280;7004;48.206;16.402;2023-03-04T08:43:43;99775.25;;;11.09;49.96
13869;BME280;7004;48.206;16.402;2023-03-04T08:46:09;99771.69;;;12.15;48.23
13869;BME280;7004;48.206;16.402;2023-03-04T08:48:36;99781.16;;;12.32;47.74
13869;BME280;7004;48.206;16.402;2023-03-04T08:51:14;99779.59;;;12.79;45.83
13869;BME280;7004;48.206;16.402;2023-03-04T08:53:42;99780.47;;;10.96;47.82
13869;BME280;7004;48.206;16.402;2023-03-04T08:56:10;99772.97;;;12.35;45.71
13869;BME280;7004;48.206;16.402;2023-03-04T08:58:36;99763.00;;;11.88;46.68
13869;BME280;7004;48.206;16.402;2023-03-04T09:01:04;99767.72;;;11.82;47.09
13869;BME280;7004;48.206;16.402;2023-03-04T09:03:32;99768.44;;;12.12;45.81
13869;BME280;7004;48.206;16.402;2023-03-04T09:06:00;99768.66;;;13.08;44.19
13869;BME280;7004;48.206;16.402;2023-03-04T09:08:27;99752.94;;;12.81;44.80
13869;BME280;7004;48.206;16.402;2023-03-04T09:10:54;99769.56;;;12.33;43.70
13869;BME280;7004;48.206;16.402;2023-03-04T09:13:25;99763.28;;;11.70;44.44
13869;BME280;7004;48.206;16.402;2023-03-04T09:15:53;99766.97;;;12.70;42.54
13869;BME280;7004;48.206;16.402;2023-03-04T09:18:21;99773.28;;;13.17;41.47
13869;BME280;7004;48.206;16.402;2023-03-04T09:20:48;99758.25;;;11.53;43.08
13869;BME280;7004;48.206;16.402;2023-03-04T09:23:16;99761.03;;;11.24;42.14
13869;BME280;7004;48.206;16.402;2023-03-04T09:25:43;99758.88;;;12.09;40.66
13869;BME280;7004;48.206;16.402;2023-03-04T09:28:12;99756.78;;;13.01;39.69
13869;BME280;7004;48.206;16.402;2023-03-04T09:30:39;99760.28;;;11.75;41.35
13869;BME280;7004;48.206;16.402;2023-03-04T09:33:06;99762.53;;;11.68;41.18
13869;BME280;7004;48.206;16.402;2023-03-04T09:35:32;99744.56;;;11.86;38.99
13869;BME280;7004;48.206;16.402;2023-03-04T09:37:59;99757.91;;;12.49;36.48
13869;BME280;7004;48.206;16.402;2023-03-04T09:40:41;99754.94;;;11.89;37.47
13869;BME280;7004;48.206;16.402;2023-03-04T09:43:19;99743.72;;;11.98;37.52
13869;BME280;7004;48.206;16.402;2023-03-04T09:45:54;99743.91;;;12.46;35.62
13869;BME280;7004;48.206;16.402;2023-03-04T09:48:24;99758.44;;;12.41;35.64
13869;BME280;7004;48.206;16.402;2023-03-04T09:51:17;99742.25;;;13.66;34.32
13869;BME280;7004;48.206;16.402;2023-03-04T09:56:51;99747.41;;;12.34;34.32
13869;BME280;7004;48.206;16.402;2023-03-04T09:59:40;99735.81;;;14.04;32.22
13869;BME280;7004;48.206;16.402;2023-03-04T10:05:19;99731.38;;;14.38;32.39
13869;BME280;7004;48.206;16.402;2023-03-04T10:07:57;99734.03;;;12.49;33.49
13869;BME280;7004;48.206;16.402;2023-03-04T10:10:34;99741.63;;;13.03;32.95
13869;BME280;7004;48.206;16.402;2023-03-04T10:13:02;99743.06;;;14.47;31.53
13869;BME280;7004;48.206;16.402;2023-03-04T10:15:47;99720.63;;;13.59;33.00
13869;BME280;7004;48.206;16.402;2023-03-04T10:18:29;99727.97;;;13.44;32.20
13869;BME280;7004;48.206;16.402;2023-03-04T10:21:28;99727.75;;;12.50;32.79
13869;BME280;7004;48.206;16.402;2023-03-04T10:23:57;99703.00;;;13.58;32.30
13869;BME280;7004;48.206;16.402;2023-03-04T10:26:29;99711.66;;;14.63;31.56
13869;BME280;7004;48.206;16.402;2023-03-04T10:28:58;99698.13;;;14.66;31.60
13869;BME280;7004;48.206;16.402;2023-03-04T10:31:37;99698.19;;;13.63;32.04
13869;BME280;7004;48.206;16.402;2023-03-04T10:34:04;99688.22;;;15.96;29.28
13869;BME280;7004;48.206;16.402;2023-03-04T10:39:38;99688.69;;;14.39;30.41
13869;BME280;7004;48.206;16.402;2023-03-04T10:47:16;99682.25;;;13.28;31.61
13869;BME280;7004;48.206;16.402;2023-03-04T10:49:55;99681.63;;;12.52;32.64
13869;BME280;7004;48.206;16.402;2023-03-04T10:52:48;99670.34;;;13.80;31.49
13869;BME280;7004;48.206;16.402;2023-03-04T10:55:40;99679.94;;;12.99;32.34
13869;BME280;7004;48.206;16.402;2023-03-04T10:58:14;99683.00;;;13.76;30.82
13869;BME280;7004;48.206;16.402;2023-03-04T11:00:43;99677.09;;;13.73;31.31
13869;BME280;7004;48.206;16.402;2023-03-04T11:06:17;99667.91;;;14.33;30.83
13869;BME280;7004;48.206;16.402;2023-03-04T11:08:55;99649.88;;;14.59;31.14
13869;BME280;7004;48.206;16.402;2023-03-04T11:11:40;99654.25;;;13.82;31.14
13869;BME280;7004;48.206;16.402;2023-03-04T11:16:59;99649.56;;;14.19;30.73
13869;BME280;7004;48.206;16.402;2023-03-04T11:19:38;99653.63;;;14.46;31.10
13869;BME280;7004;48.206;16.402;2023-03-04T11:22:05;99643.72;;;14.91;30.29
13869;BME280;7004;48.206;16.402;2023-03-04T11:24:34;99636.63;;;14.80;30.54
13869;BME280;7004;48.206;16.402;2023-03-04T11:27:20;99643.75;;;14.03;31.27
13869;BME280;7004;48.206;16.402;2023-03-04T11:36:48;99647.03;;;13.26;32.46
13869;BME280;7004;48.206;16.402;2023-03-04T11:39:30;99638.69;;;13.88;31.54
13869;BME280;7004;48.206;16.402;2023-03-04T11:44:51;99626.09;;;13.57;32.58
13869;BME280;7004;48.206;16.402;2023-03-04T11:47:47;99625.88;;;14.16;31.96
13869;BME280;7004;48.206;16.402;2023-03-04T11:53:28;99625.88;;;13.82;31.63
13869;BME280;7004;48.206;16.402;2023-03-04T12:01:20;99610.47;;;14.42;30.60
13869;BME280;7004;48.206;16.402;2023-03-04T12:07:52;99610.13;;;14.58;30.05
13869;BME280;7004;48.206;16.402;2023-03-04T12:10:35;99593.69;;;14.85;29.65
13869;BME280;7004;48.206;16.402;2023-03-04T12:19:15;99575.44;;;14.80;30.36
13869;BME280;7004;48.206;16.402;2023-03-04T12:41:41;99554.53;;;13.44;30.77
13869;BME280;7004;48.206;16.402;2023-03-04T12:44:32;99562.38;;;13.45;30.26
13869;BME280;7004;48.206;16.402;2023-03-04T12:47:26;99553.22;;;13.03;31.59
13869;BME280;7004;48.206;16.402;2023-03-04T12:50:28;99551.72;;;12.87;32.06
13869;BME280;7004;48.206;16.402;2023-03-04T12:56:04;99546.50;;;14.00;31.09
13869;BME280;7004;48.206;16.402;2023-03-04T12:58:33;99544.50;;;13.47;31.50
13869;BME280;7004;48.206;16.402;2023-03-04T13:04:14;99542.19;;;13.31;32.02
13869;BME280;7004;48.206;16.402;2023-03-04T13:09:49;99536.03;;;13.76;32.97
13869;BME280;7004;48.206;16.402;2023-03-04T13:12:21;99523.31;;;14.99;32.10
13869;BME280;7004;48.206;16.402;2023-03-04T13:17:51;99532.75;;;13.16;32.98
13869;BME280;7004;48.206;16.402;2023-03-04T13:20:36;99525.13;;;13.00;34.21
13869;BME280;7004;48.206;16.402;2023-03-04T13:23:26;99535.91;;;13.32;34.44
13869;BME280;7004;48.206;16.402;2023-03-04T13:28:31;99534.50;;;13.62;33.98
13869;BME280;7004;48.206;16.402;2023-03-04T13:31:27;99531.53;;;13.20;34.63
13869;BME280;7004;48.206;16.402;2023-03-04T13:33:56;99514.81;;;13.53;34.95
13869;BME280;7004;48.206;16.402;2023-03-04T13:36:31;99521.19;;;13.73;34.91
13869;BME280;7004;48.206;16.402;2023-03-04T13:41:50;99514.25;;;14.05;34.22
13869;BME280;7004;48.206;16.402;2023-03-04T13:47:26;99507.53;;;13.67;34.83
13869;BME280;7004;48.206;16.402;2023-03-04T13:50:34;99497.44;;;13.27;35.89
13869;BME280;7004;48.206;16.402;2023-03-04T13:53:39;99496.78;;;13.01;35.96
13869;BME280;7004;48.206;16.402;2023-03-04T13:56:20;99496.94;;;13.55;35.26
13869;BME280;7004;48.206;16.402;2023-03-04T13:59:01;99505.78;;;12.87;35.23
13869;BME280;7004;48.206;16.402;2023-03-04T14:01:33;99497.66;;;13.35;35.10
13869;BME280;7004;48.206;16.402;2023-03-04T14:06:42;99511.38;;;13.06;35.51
13869;BME280;7004;48.206;16.402;2023-03-04T14:09:23;99497.88;;;12.63;36.07
13869;BME280;7004;48.206;16.402;2023-03-04T14:11:52;99502.97;;;12.66;35.95
13869;BME280;7004;48.206;16.402;2023-03-04T14:14:24;99503.19;;;12.28;36.69
13869;BME280;7004;48.206;16.402;2023-03-04T14:16:56;99503.06;;;12.05;36.70
13869;BME280;7004;48.206;16.402;2023-03-04T14:19:28;99504.84;;;12.29;36.18
13869;BME280;7004;48.206;16.402;2023-03-04T14:21:56;99498.94;;;12.01;36.48
13869;BME280;7004;48.206;16.402;2023-03-04T14:24:25;99500.22;;;12.43;35.65
13869;BME280;7004;48.206;16.402;2023-03-04T14:27:12;99495.66;;;12.45;35.67
13869;BME280;7004;48.206;16.402;2023-03-04T14:29:39;99501.53;;;11.77;36.63
13869;BME280;7004;48.206;16.402;2023-03-04T14:32:06;99494.16;;;11.56;37.02
13869;BME280;7004;48.206;16.402;2023-03-04T14:34:36;99504.91;;;11.92;35.95
13869;BME280;7004;48.206;16.402;2023-03-04T14:37:23;99525.94;;;11.31;37.01
13869;BME280;7004;48.206;16.402;2023-03-04T14:39:56;99546.47;;;11.66;37.90
13869;BME280;7004;48.206;16.402;2023-03-04T14:42:37;99546.25;;;10.92;38.46
13869;BME280;7004;48.206;16.402;2023-03-04T14:45:14;99540.94;;;10.66;39.73
13869;BME280;7004;48.206;16.402;2023-03-04T14:47:44;99533.22;;;10.22;40.43
13869;BME280;7004;48.206;16.402;2023-03-04T14:50:18;99536.06;;;10.73;40.31
13869;BME280;7004;48.206;16.402;2023-03-04T14:52:48;99544.56;;;10.38;40.96
13869;BME280;7004;48.206;16.402;2023-03-04T14:55:23;99539.31;;;10.51;40.74